Time;durP1;ratioP1;P1;durP2;ratioP2;P2;SDS_P1;SDS_P2;PMS_P1;PMS_P2;Temp;Humidity;BMP_temperature;BMP_pressure;BME280_temperature;BME280_humidity;BME280_pressure;Samples;Min_cycle;Max_cycle;Signal;HPM_P1;HPM_P2
2021/09/09 00:01:50;;;;;;;13.68;11.05;;;20.50;96.20;;;;;;5107758;28;20596;-38
2021/09/09 00:04:15;;;;;;;12.93;10.80;;;20.50;96.30;;;;;;5109310;28;20051;-38
2021/09/09 00:06:43;;;;;;;11.75;10.10;;;20.50;96.30;;;;;;5109584;28;20356;-39
2021/09/09 00:09:09;;;;;;;11.73;10.50;;;20.50;96.30;;;;;;5108698;28;20050;-37
2021/09/09 00:11:34;;;;;;;13.27;10.20;;;20.50;96.30;;;;;;5109231;28;20471;-38
2021/09/09 00:14:03;;;;;;;12.73;10.55;;;20.50;96.30;;;;;;5109091;28;20056;-40
2021/09/09 00:16:28;;;;;;;13.48;11.38;;;20.50;96.30;;;;;;5097109;28;20035;-35
2021/09/09 00:18:54;;;;;;;11.82;10.18;;;20.50;96.30;;;;;;5096615;28;20032;-35
2021/09/09 00:21:20;;;;;;;11.02;9.75;;;20.50;96.30;;;;;;5109654;28;20098;-38
2021/09/09 00:23:45;;;;;;;11.68;10.32;;;20.50;96.20;;;;;;5109070;28;20514;-36
2021/09/09 00:26:11;;;;;;;12.45;10.38;;;20.50;96.30;;;;;;5108901;28;20020;-36
2021/09/09 00:28:36;;;;;;;11.88;10.68;;;20.50;96.30;;;;;;5109043;28;20114;-37
2021/09/09 00:31:02;;;;;;;12.85;9.98;;;20.40;96.20;;;;;;5108292;28;20016;-32
2021/09/09 00:33:27;;;;;;;13.93;11.25;;;20.40;96.20;;;;;;5109125;28;20028;-39
2021/09/09 00:35:53;;;;;;;12.07;10.38;;;20.40;96.20;;;;;;5109177;28;20041;-37
2021/09/09 00:38:18;;;;;;;12.93;10.93;;;20.40;96.20;;;;;;5109088;28;20042;-39
2021/09/09 00:40:47;;;;;;;13.05;10.95;;;20.40;96.20;;;;;;5108718;28;20019;-39
2021/09/09 00:43:12;;;;;;;13.45;11.55;;;20.40;96.20;;;;;;5110856;28;20024;-38
2021/09/09 00:45:51;;;;;;;11.95;10.75;;;20.40;96.20;;;;;;5112203;28;20023;-37
2021/09/09 00:48:17;;;;;;;13.30;11.90;;;20.40;96.20;;;;;;5072650;28;20024;-37
2021/09/09 00:50:42;;;;;;;12.60;11.30;;;20.30;96.20;;;;;;5101464;28;20047;-32
2021/09/09 00:53:08;;;;;;;12.98;11.57;;;20.30;96.20;;;;;;5112058;28;20020;-37
2021/09/09 00:55:33;;;;;;;13.82;11.55;;;20.20;96.30;;;;;;5112066;28;20011;-36
2021/09/09 00:57:59;;;;;;;13.52;11.73;;;20.20;96.30;;;;;;5111234;28;20067;-39
2021/09/09 01:00:25;;;;;;;14.80;12.18;;;20.20;96.30;;;;;;5111324;28;20462;-34
2021/09/09 01:02:50;;;;;;;12.63;11.20;;;20.20;96.60;;;;;;5110674;28;20027;-36
2021/09/09 01:05:16;;;;;;;12.75;11.35;;;20.20;96.40;;;;;;5110249;28;20008;-37
2021/09/09 01:07:41;;;;;;;12.90;11.43;;;20.20;96.40;;;;;;5111457;28;20027;-36
2021/09/09 01:10:07;;;;;;;13.15;11.43;;;20.10;96.50;;;;;;5110922;28;20024;-42
2021/09/09 01:12:33;;;;;;;13.80;11.07;;;20.10;96.50;;;;;;5110530;28;20071;-39
2021/09/09 01:15:02;;;;;;;13.52;10.07;;;20.10;96.60;;;;;;5110237;28;20096;-37
2021/09/09 01:17:28;;;;;;;13.50;11.27;;;20.00;96.60;;;;;;5103799;28;20036;-39
2021/09/09 01:19:53;;;;;;;12.50;11.07;;;20.00;96.60;;;;;;5101554;28;20466;-41
2021/09/09 01:22:19;;;;;;;14.07;10.65;;;20.00;96.70;;;;;;5111436;28;20020;-35
2021/09/09 01:24:44;;;;;;;14.20;10.82;;;20.00;96.70;;;;;;5112645;28;20503;-40
2021/09/09 01:27:10;;;;;;;14.05;11.93;;;20.00;96.70;;;;;;5111102;28;20016;-38
2021/09/09 01:29:40;;;;;;;12.23;11.02;;;20.00;96.80;;;;;;5112484;28;20413;-39
2021/09/09 01:32:07;;;;;;;15.35;11.68;;;19.90;96.70;;;;;;5112144;28;20024;-37
2021/09/09 01:34:34;;;;;;;13.07;11.50;;;19.90;96.80;;;;;;5111642;28;20101;-40
2021/09/09 01:36:59;;;;;;;13.98;12.05;;;19.90;96.80;;;;;;5111216;28;20038;-36
2021/09/09 01:39:26;;;;;;;13.48;11.40;;;19.80;96.90;;;;;;5112289;28;20024;-38
2021/09/09 01:41:53;;;;;;;15.75;11.75;;;19.80;96.90;;;;;;5110163;28;20355;-36
2021/09/09 01:44:20;;;;;;;13.45;11.43;;;19.80;96.90;;;;;;5111929;28;20497;-36
2021/09/09 01:46:49;;;;;;;14.50;11.55;;;19.80;97.00;;;;;;5111780;28;20038;-38
2021/09/09 01:49:16;;;;;;;15.05;12.55;;;19.70;97.00;;;;;;5111747;28;20019;-39
2021/09/09 01:51:41;;;;;;;16.88;12.07;;;19.70;97.10;;;;;;5111586;28;20200;-38
2021/09/09 01:54:07;;;;;;;14.15;11.85;;;19.70;97.10;;;;;;5110329;28;20102;-40
2021/09/09 01:56:33;;;;;;;11.88;10.35;;;19.70;97.10;;;;;;5111463;28;20471;-35
2021/09/09 01:58:58;;;;;;;14.15;11.23;;;19.70;97.20;;;;;;5111130;28;20114;-37
2021/09/09 02:01:24;;;;;;;14.30;12.27;;;19.60;97.20;;;;;;5111197;28;20047;-39
2021/09/09 02:03:50;;;;;;;15.20;12.18;;;19.60;97.20;;;;;;5110468;28;20031;-39
2021/09/09 02:06:16;;;;;;;14.50;12.68;;;19.60;97.30;;;;;;5109919;28;20118;-38
2021/09/09 02:08:43;;;;;;;15.02;11.80;;;19.50;97.30;;;;;;5109007;28;20308;-36
2021/09/09 02:11:08;;;;;;;15.98;12.02;;;19.50;97.40;;;;;;5109793;28;20044;-36
2021/09/09 02:13:37;;;;;;;15.32;13.10;;;19.50;97.40;;;;;;5109347;28;20097;-39
2021/09/09 02:16:04;;;;;;;16.48;12.63;;;19.40;97.50;;;;;;5109947;28;20019;-35
2021/09/09 02:18:29;;;;;;;13.07;11.65;;;19.40;97.50;;;;;;5110410;28;20028;-37
2021/09/09 02:20:55;;;;;;;13.73;11.88;;;19.40;97.60;;;;;;5109272;28;20016;-39
2021/09/09 02:23:21;;;;;;;16.13;13.13;;;19.40;97.60;;;;;;5109137;28;20367;-36
2021/09/09 02:25:47;;;;;;;13.50;12.10;;;19.30;97.60;;;;;;5108976;28;20019;-38
2021/09/09 02:28:12;;;;;;;14.30;11.43;;;19.30;97.90;;;;;;5109629;28;20605;-38
2021/09/09 02:30:40;;;;;;;14.48;12.27;;;19.30;97.70;;;;;;5108447;28;20015;-40
2021/09/09 02:33:05;;;;;;;15.90;11.95;;;19.30;97.80;;;;;;5109375;28;20057;-37
2021/09/09 02:35:31;;;;;;;15.95;13.10;;;19.20;97.80;;;;;;5109372;28;20039;-39
2021/09/09 02:37:56;;;;;;;13.68;12.27;;;19.20;97.80;;;;;;5108883;28;20358;-40
2021/09/09 02:40:22;;;;;;;17.05;12.70;;;19.20;97.90;;;;;;5110793;28;20414;-39
2021/09/09 02:42:47;;;;;;;12.88;11.35;;;19.20;97.90;;;;;;5110105;28;20053;-35
2021/09/09 02:45:13;;;;;;;12.95;11.00;;;19.10;97.90;;;;;;5110530;28;20019;-36
2021/09/09 02:47:39;;;;;;;12.80;11.38;;;19.10;98.00;;;;;;5110567;28;20036;-39
2021/09/09 02:50:08;;;;;;;13.32;11.60;;;19.10;98.10;;;;;;5110047;28;20034;-38
2021/09/09 02:52:34;;;;;;;14.02;10.82;;;19.10;98.10;;;;;;5110397;28;20108;-34
2021/09/09 02:55:00;;;;;;;13.60;12.20;;;19.00;98.10;;;;;;5109677;28;20482;-39
2021/09/09 02:57:25;;;;;;;13.50;11.55;;;19.10;98.20;;;;;;5110340;28;20479;-39
2021/09/09 02:59:54;;;;;;;13.52;11.80;;;19.10;98.30;;;;;;5110377;28;20064;-38
2021/09/09 03:02:19;;;;;;;14.00;12.20;;;19.00;98.20;;;;;;5110334;28;20033;-38
2021/09/09 03:04:45;;;;;;;14.60;12.10;;;19.00;98.20;;;;;;5109325;28;20098;-39
2021/09/09 03:07:13;;;;;;;14.93;12.02;;;19.00;98.30;;;;;;5109786;28;20027;-38
2021/09/09 03:09:42;;;;;;;14.25;12.05;;;19.00;98.30;;;;;;5109933;28;20115;-37
2021/09/09 03:12:08;;;;;;;13.50;12.07;;;19.00;98.30;;;;;;5109697;28;20024;-38
2021/09/09 03:14:33;;;;;;;14.63;12.18;;;19.00;98.30;;;;;;5109507;28;20536;-36
2021/09/09 03:16:59;;;;;;;14.93;13.35;;;19.00;98.40;;;;;;5108316;28;20031;-40
2021/09/09 03:19:24;;;;;;;13.25;11.60;;;18.90;98.40;;;;;;5107758;28;20523;-40
2021/09/09 03:21:50;;;;;;;14.68;12.13;;;18.90;98.40;;;;;;5107825;28;20023;-36
2021/09/09 03:24:15;;;;;;;14.80;12.40;;;18.90;98.50;;;;;;5109728;28;20019;-36
2021/09/09 03:26:41;;;;;;;13.80;12.30;;;18.90;98.50;;;;;;5108621;28;20482;-39
2021/09/09 03:29:07;;;;;;;14.45;12.48;;;18.90;98.50;;;;;;5109833;28;20046;-36
2021/09/09 03:31:33;;;;;;;13.07;10.88;;;18.90;98.50;;;;;;5108250;28;20062;-38
2021/09/09 03:33:58;;;;;;;13.27;11.27;;;18.80;98.50;;;;;;5108806;28;20034;-40
2021/09/09 03:36:24;;;;;;;19.13;12.88;;;18.80;98.60;;;;;;5109723;28;20527;-37
2021/09/09 03:38:49;;;;;;;14.07;11.85;;;18.80;98.60;;;;;;5109433;28;20056;-35
2021/09/09 03:41:15;;;;;;;15.63;13.05;;;18.70;98.60;;;;;;5109687;28;20015;-40
2021/09/09 03:43:40;;;;;;;15.23;12.15;;;18.80;98.70;;;;;;5109979;28;20028;-36
2021/09/09 03:46:06;;;;;;;14.43;12.23;;;18.70;98.70;;;;;;5109695;28;20035;-36
2021/09/09 03:48:31;;;;;;;16.48;12.05;;;18.70;98.80;;;;;;5109672;28;20114;-39
2021/09/09 03:50:57;;;;;;;14.25;12.75;;;18.70;98.80;;;;;;5108894;28;20023;-35
2021/09/09 03:53:22;;;;;;;17.60;12.95;;;18.60;98.80;;;;;;5108789;28;20024;-39
2021/09/09 03:55:48;;;;;;;14.15;12.65;;;18.60;98.80;;;;;;5108886;28;20024;-37
2021/09/09 03:58:13;;;;;;;16.05;13.27;;;18.60;98.90;;;;;;5109840;28;20024;-39
2021/09/09 04:00:45;;;;;;;15.25;12.60;;;18.60;98.90;;;;;;5108747;28;20038;-37
2021/09/09 04:03:11;;;;;;;15.50;13.57;;;18.60;98.90;;;;;;5109932;28;20382;-39
2021/09/09 04:05:36;;;;;;;14.07;12.65;;;18.60;99.00;;;;;;5109690;28;20118;-36
2021/09/09 04:08:02;;;;;;;15.57;12.40;;;18.50;99.00;;;;;;5108970;28;20054;-37
2021/09/09 04:10:27;;;;;;;14.25;12.40;;;18.50;99.00;;;;;;5109900;28;20016;-35
2021/09/09 04:12:56;;;;;;;14.00;12.50;;;18.50;99.10;;;;;;5108896;28;20056;-38
2021/09/09 04:15:21;;;;;;;16.75;13.50;;;18.40;99.10;;;;;;5109469;28;20020;-40
2021/09/09 04:17:47;;;;;;;16.02;13.80;;;18.40;99.20;;;;;;5111962;28;20095;-37
2021/09/09 04:20:13;;;;;;;14.73;13.13;;;18.40;99.20;;;;;;5113259;28;20115;-36
2021/09/09 04:22:38;;;;;;;19.70;13.32;;;18.40;99.30;;;;;;5111594;28;20049;-38
2021/09/09 04:25:05;;;;;;;16.73;14.18;;;18.40;99.30;;;;;;5112611;28;20020;-34
2021/09/09 04:27:32;;;;;;;15.82;13.77;;;18.40;99.40;;;;;;5111277;28;20399;-37
2021/09/09 04:29:58;;;;;;;16.98;14.18;;;18.30;99.30;;;;;;5111693;28;20031;-38
2021/09/09 04:32:24;;;;;;;14.93;13.35;;;18.30;99.40;;;;;;5112068;28;20015;-38
2021/09/09 04:34:50;;;;;;;17.15;13.82;;;18.30;99.40;;;;;;5112506;28;20061;-36
2021/09/09 04:37:15;;;;;;;15.95;13.38;;;18.30;99.40;;;;;;5111690;28;20030;-37
2021/09/09 04:39:41;;;;;;;16.00;13.48;;;18.30;99.40;;;;;;5112611;28;20028;-36
2021/09/09 04:42:06;;;;;;;14.40;12.85;;;18.20;99.40;;;;;;5112794;28;20367;-35
2021/09/09 04:44:32;;;;;;;14.07;12.45;;;18.20;99.50;;;;;;5112362;28;20458;-37
2021/09/09 04:46:58;;;;;;;16.58;13.23;;;18.20;99.50;;;;;;5112141;28;20016;-38
2021/09/09 04:49:23;;;;;;;14.13;12.60;;;18.20;99.50;;;;;;5110553;28;20024;-36
2021/09/09 04:51:49;;;;;;;15.05;12.40;;;18.20;99.60;;;;;;5112204;28;20019;-37
2021/09/09 04:54:14;;;;;;;18.90;12.68;;;18.20;99.70;;;;;;5113093;28;20024;-39
2021/09/09 04:56:40;;;;;;;15.85;12.75;;;18.20;99.70;;;;;;5112004;28;20035;-40
2021/09/09 04:59:05;;;;;;;15.63;13.07;;;18.20;99.70;;;;;;5110183;28;20054;-38
2021/09/09 05:01:31;;;;;;;18.30;13.35;;;18.20;99.80;;;;;;5112433;28;20032;-38
2021/09/09 05:03:56;;;;;;;17.08;13.48;;;18.20;99.80;;;;;;5111692;28;20027;-37
2021/09/09 05:06:22;;;;;;;16.98;14.07;;;18.10;99.80;;;;;;5112926;28;20025;-39
2021/09/09 05:08:47;;;;;;;15.07;13.13;;;18.10;99.80;;;;;;5112005;28;20027;-34
2021/09/09 05:11:16;;;;;;;17.50;13.70;;;18.10;99.90;;;;;;5112148;28;20016;-38
2021/09/09 05:13:42;;;;;;;16.65;13.77;;;18.10;99.90;;;;;;5111968;28;20075;-39
2021/09/09 05:16:07;;;;;;;14.77;13.05;;;18.10;99.90;;;;;;5112103;28;20054;-34
2021/09/09 05:18:33;;;;;;;16.00;13.73;;;18.10;99.90;;;;;;5111471;28;20039;-38
2021/09/09 05:20:59;;;;;;;15.50;13.27;;;18.10;99.90;;;;;;5102982;28;20016;-39
2021/09/09 05:23:24;;;;;;;16.10;14.25;;;18.10;99.90;;;;;;5112828;28;20599;-38
2021/09/09 05:25:50;;;;;;;16.75;12.65;;;18.10;99.90;;;;;;5111364;28;20653;-36
2021/09/09 05:28:16;;;;;;;15.20;13.52;;;18.10;99.90;;;;;;5111788;28;20027;-36
2021/09/09 05:30:41;;;;;;;16.88;14.27;;;18.10;99.90;;;;;;5111255;28;20497;-33
2021/09/09 05:33:07;;;;;;;16.10;13.93;;;18.10;99.90;;;;;;5110355;28;20059;-39
2021/09/09 05:35:33;;;;;;;14.65;13.05;;;18.10;99.90;;;;;;5110682;28;20031;-34
2021/09/09 05:37:58;;;;;;;15.80;13.30;;;18.10;99.90;;;;;;5110462;28;20057;-36
2021/09/09 05:40:24;;;;;;;15.98;13.80;;;18.10;99.90;;;;;;5109525;28;20019;-37
2021/09/09 05:42:49;;;;;;;15.20;13.60;;;18.10;99.90;;;;;;5111612;28;20035;-35
2021/09/09 05:45:15;;;;;;;16.05;14.27;;;18.10;99.90;;;;;;5101116;28;20396;-34
2021/09/09 05:47:40;;;;;;;16.00;13.20;;;18.10;99.90;;;;;;5105635;28;20026;-38
2021/09/09 05:50:09;;;;;;;17.80;14.70;;;18.10;99.90;;;;;;5109987;28;20467;-38
2021/09/09 05:52:35;;;;;;;18.45;13.90;;;18.10;99.90;;;;;;5105893;28;20074;-38
2021/09/09 05:55:01;;;;;;;18.25;15.18;;;18.10;99.90;;;;;;5107914;28;20466;-35
2021/09/09 05:57:26;;;;;;;17.33;14.43;;;18.20;99.90;;;;;;5108836;28;20097;-36
2021/09/09 05:59:52;;;;;;;16.85;13.40;;;18.20;99.90;;;;;;5109680;28;20038;-37
2021/09/09 06:02:23;;;;;;;17.40;13.95;;;18.20;99.90;;;;;;5110196;28;20461;-38
2021/09/09 06:04:49;;;;;;;17.23;13.67;;;18.20;99.90;;;;;;5110001;28;20568;-38
2021/09/09 06:07:18;;;;;;;17.00;13.70;;;18.20;99.90;;;;;;5110671;28;20027;-37
2021/09/09 06:09:43;;;;;;;16.65;13.25;;;18.30;99.90;;;;;;5093236;28;20027;-35
2021/09/09 06:12:10;;;;;;;15.38;13.05;;;18.30;99.90;;;;;;5099802;28;20032;-39
2021/09/09 06:14:35;;;;;;;18.20;14.32;;;18.30;99.90;;;;;;5110331;28;20028;-40
2021/09/09 06:17:01;;;;;;;15.50;13.80;;;18.30;99.90;;;;;;5109650;28;20024;-39
2021/09/09 06:19:27;;;;;;;17.42;14.02;;;18.30;99.90;;;;;;5110911;28;20016;-39
2021/09/09 06:21:53;;;;;;;17.65;14.77;;;18.30;99.90;;;;;;5108405;28;20690;-38
2021/09/09 06:24:19;;;;;;;18.45;14.80;;;18.30;99.90;;;;;;5110561;28;20032;-38
2021/09/09 06:26:45;;;;;;;19.52;15.98;;;18.40;99.90;;;;;;5110786;28;20427;-40
2021/09/09 06:29:10;;;;;;;18.30;15.45;;;18.40;99.90;;;;;;5110834;28;20034;-39
2021/09/09 06:31:36;;;;;;;19.60;16.17;;;18.40;99.90;;;;;;5110544;28;20059;-41
2021/09/09 06:34:02;;;;;;;17.75;15.48;;;18.40;99.90;;;;;;5111057;28;20016;-40
2021/09/09 06:36:27;;;;;;;18.13;15.18;;;18.40;99.90;;;;;;5098527;28;20111;-38
2021/09/09 06:38:53;;;;;;;17.38;13.93;;;18.50;99.90;;;;;;5110323;28;20127;-41
2021/09/09 06:41:21;;;;;;;16.42;14.73;;;18.50;99.90;;;;;;5109859;28;20554;-40
2021/09/09 06:43:47;;;;;;;16.15;14.45;;;18.50;99.90;;;;;;5085293;28;20118;-40
2021/09/09 06:46:12;;;;;;;17.67;14.20;;;18.60;99.90;;;;;;5108951;28;20115;-40
2021/09/09 06:48:38;;;;;;;21.42;15.27;;;18.60;99.90;;;;;;5109130;28;20035;-34
2021/09/09 06:51:03;;;;;;;19.13;14.85;;;18.60;99.90;;;;;;5109126;28;20019;-39
2021/09/09 06:53:30;;;;;;;18.48;13.90;;;18.70;99.90;;;;;;5109087;28;20030;-38
2021/09/09 06:55:55;;;;;;;17.17;13.75;;;18.70;99.90;;;;;;5110746;28;20016;-36
2021/09/09 06:58:24;;;;;;;16.70;14.57;;;18.70;99.90;;;;;;5109587;28;20505;-40
2021/09/09 07:00:59;;;;;;;15.93;14.32;;;18.80;99.90;;;;;;5110346;28;20023;-38
2021/09/09 07:03:30;;;;;;;15.18;13.57;;;18.80;99.90;;;;;;5108686;28;20024;-35
2021/09/09 07:05:56;;;;;;;16.10;13.38;;;18.90;99.90;;;;;;5103881;28;20043;-36
2021/09/09 07:08:21;;;;;;;14.30;12.77;;;18.90;99.90;;;;;;5102293;28;20398;-38
2021/09/09 07:10:47;;;;;;;16.15;13.65;;;18.90;99.90;;;;;;5106154;28;20118;-37
2021/09/09 07:13:12;;;;;;;17.88;14.90;;;19.00;99.90;;;;;;5108793;28;20058;-33
2021/09/09 07:15:38;;;;;;;17.23;15.35;;;19.00;99.90;;;;;;5110476;28;20343;-37
2021/09/09 07:18:04;;;;;;;14.20;12.80;;;19.10;99.90;;;;;;5109942;28;20019;-37
2021/09/09 07:20:32;;;;;;;15.80;13.90;;;19.10;99.90;;;;;;5111044;28;20459;-39
2021/09/09 07:22:58;;;;;;;16.73;13.25;;;19.20;99.90;;;;;;5109350;28;20359;-36
2021/09/09 07:25:23;;;;;;;15.02;13.43;;;19.20;99.80;;;;;;5110059;28;20497;-38
2021/09/09 07:27:49;;;;;;;14.55;11.98;;;19.20;99.80;;;;;;5109825;28;20030;-37
2021/09/09 07:30:14;;;;;;;14.02;12.50;;;19.30;99.80;;;;;;5109366;28;20072;-37
2021/09/09 07:32:40;;;;;;;14.10;11.45;;;19.30;99.80;;;;;;5093266;28;20027;-37
2021/09/09 07:35:06;;;;;;;12.98;11.00;;;19.40;99.80;;;;;;5110147;28;20024;-34
2021/09/09 07:37:31;;;;;;;14.93;12.50;;;19.40;99.70;;;;;;5110528;28;20425;-37
2021/09/09 07:39:57;;;;;;;17.60;13.50;;;19.50;99.70;;;;;;5109612;28;20024;-38
2021/09/09 07:42:25;;;;;;;15.35;13.60;;;19.60;99.60;;;;;;5109962;28;20485;-38
2021/09/09 07:44:50;;;;;;;14.18;12.73;;;19.70;99.60;;;;;;5107606;28;20023;-38
2021/09/09 07:47:16;;;;;;;14.85;12.93;;;19.80;99.50;;;;;;5110121;28;20026;-35
2021/09/09 07:49:41;;;;;;;19.88;14.80;;;19.80;99.40;;;;;;5109571;28;20453;-38
2021/09/09 07:52:10;;;;;;;17.98;15.25;;;19.90;99.50;;;;;;5109735;28;20028;-40
2021/09/09 07:54:38;;;;;;;15.52;13.75;;;19.90;99.40;;;;;;5111885;28;20474;-39
2021/09/09 07:57:04;;;;;;;15.50;12.88;;;20.00;99.30;;;;;;5111934;28;20062;-40
2021/09/09 07:59:32;;;;;;;13.98;12.57;;;20.10;99.20;;;;;;5113052;28;20057;-38
2021/09/09 08:01:58;;;;;;;13.68;11.60;;;20.10;99.20;;;;;;5113520;28;20023;-38
2021/09/09 08:04:24;;;;;;;14.52;13.00;;;20.20;99.20;;;;;;5112968;28;20072;-40
2021/09/09 08:06:49;;;;;;;13.23;11.10;;;20.20;99.10;;;;;;5112834;28;20082;-37
2021/09/09 08:09:15;;;;;;;15.77;12.07;;;20.40;99.10;;;;;;5114491;28;20030;-40
2021/09/09 08:11:40;;;;;;;14.45;12.60;;;20.50;99.00;;;;;;5112270;28;20023;-39
2021/09/09 08:14:06;;;;;;;13.43;11.77;;;20.70;98.90;;;;;;5111307;28;20049;-40
2021/09/09 08:16:33;;;;;;;15.65;11.85;;;20.80;98.70;;;;;;5112387;28;20020;-40
2021/09/09 08:19:01;;;;;;;12.32;11.05;;;20.80;98.60;;;;;;5113045;28;20047;-42
2021/09/09 08:21:29;;;;;;;13.07;11.50;;;20.90;98.60;;;;;;5112785;28;20057;-37
2021/09/09 08:23:55;;;;;;;13.98;12.32;;;20.90;98.60;;;;;;5113043;28;20031;-41
2021/09/09 08:26:20;;;;;;;12.25;10.98;;;20.90;98.60;;;;;;5095207;28;20036;-39
2021/09/09 08:28:46;;;;;;;13.13;11.57;;;20.90;98.70;;;;;;5113044;28;20339;-40
2021/09/09 08:31:12;;;;;;;11.07;9.93;;;20.90;98.60;;;;;;5114102;28;20023;-41
2021/09/09 08:33:39;;;;;;;12.43;11.13;;;20.90;98.60;;;;;;5113278;28;20051;-40
2021/09/09 08:36:06;;;;;;;12.60;11.10;;;20.90;98.60;;;;;;5112130;28;20030;-40
2021/09/09 08:38:32;;;;;;;13.52;11.35;;;20.90;98.60;;;;;;5113788;28;20396;-39
2021/09/09 08:41:01;;;;;;;12.40;11.10;;;21.00;98.60;;;;;;5111706;28;20024;-41
2021/09/09 08:43:26;;;;;;;11.35;10.15;;;21.00;98.60;;;;;;5095321;28;20036;-41
2021/09/09 08:45:53;;;;;;;14.90;10.23;;;21.00;98.50;;;;;;5090034;28;20016;-42
2021/09/09 08:48:19;;;;;;;10.73;9.63;;;21.10;98.50;;;;;;5086509;28;20016;-42
2021/09/09 08:50:45;;;;;;;10.50;9.40;;;21.10;98.40;;;;;;5088291;28;20381;-41
2021/09/09 08:53:11;;;;;;;11.85;9.95;;;21.20;98.40;;;;;;5087881;28;20471;-42
2021/09/09 08:55:37;;;;;;;11.25;9.88;;;21.20;98.30;;;;;;5085811;28;20051;-41
2021/09/09 08:58:05;;;;;;;10.85;9.25;;;21.30;98.20;;;;;;5086807;28;20439;-42
2021/09/09 09:00:33;;;;;;;11.32;9.57;;;21.30;98.20;;;;;;5083120;28;20026;-36
2021/09/09 09:02:59;;;;;;;10.95;9.45;;;21.40;98.10;;;;;;5089960;28;20016;-40
2021/09/09 09:05:26;;;;;;;8.93;8.02;;;21.40;98.00;;;;;;5090493;28;20100;-36
2021/09/09 09:08:03;;;;;;;8.25;7.40;;;21.50;97.90;;;;;;5110429;28;20024;-41
2021/09/09 09:10:30;;;;;;;9.88;8.63;;;21.50;97.90;;;;;;5111519;28;20051;-40
2021/09/09 09:12:56;;;;;;;10.65;8.82;;;21.70;97.80;;;;;;5111565;28;20166;-43
2021/09/09 09:15:25;;;;;;;9.88;8.60;;;21.80;97.70;;;;;;5113154;28;20107;-39
2021/09/09 09:17:56;;;;;;;9.32;8.35;;;22.00;97.50;;;;;;5111645;28;20037;-38
2021/09/09 09:20:25;;;;;;;10.52;9.43;;;22.20;97.20;;;;;;5082117;28;20475;-41
2021/09/09 09:22:51;;;;;;;10.18;8.70;;;22.40;97.00;;;;;;5100569;28;20103;-40
2021/09/09 09:25:17;;;;;;;9.20;8.30;;;22.50;96.90;;;;;;5110527;28;20019;-36
2021/09/09 09:27:47;;;;;;;7.78;6.97;;;22.60;96.70;;;;;;5112204;28;20024;-40
2021/09/09 09:30:14;;;;;;;9.50;8.32;;;22.60;96.60;;;;;;5112486;28;20069;-42
2021/09/09 09:32:47;;;;;;;8.32;7.50;;;22.70;96.50;;;;;;5111621;28;20023;-43
2021/09/09 09:35:16;;;;;;;8.60;7.72;;;22.80;96.40;;;;;;5110713;28;20478;-36
2021/09/09 09:37:54;;;;;;;11.52;8.40;;;22.90;96.30;;;;;;5111185;28;20118;-42
2021/09/09 09:40:32;;;;;;;9.80;8.80;;;23.10;96.10;;;;;;5111788;28;20383;-36
2021/09/09 09:42:59;;;;;;;8.63;7.60;;;23.30;95.80;;;;;;5103626;28;20102;-40
2021/09/09 09:45:25;;;;;;;10.40;9.07;;;23.50;95.70;;;;;;5111600;28;20027;-38
2021/09/09 09:47:51;;;;;;;11.52;10.32;;;23.60;95.40;;;;;;5111699;28;20427;-36
2021/09/09 09:50:22;;;;;;;15.93;10.27;;;23.70;95.20;;;;;;5092579;28;20526;-39
2021/09/09 09:52:48;;;;;;;12.02;9.43;;;23.80;95.20;;;;;;5082750;28;20026;-37
2021/09/09 09:55:14;;;;;;;11.40;8.77;;;23.90;95.10;;;;;;5112272;28;20466;-37
2021/09/09 09:57:51;;;;;;;10.63;8.02;;;24.00;95.00;;;;;;5111449;28;20038;-40
2021/09/09 10:00:17;;;;;;;9.85;8.85;;;24.20;94.90;;;;;;5111609;28;20076;-40
2021/09/09 10:02:43;;;;;;;8.85;7.88;;;24.30;94.80;;;;;;5111422;28;20027;-42
2021/09/09 10:05:10;;;;;;;10.32;8.50;;;24.30;94.80;;;;;;5106753;28;20032;-40
2021/09/09 10:07:36;;;;;;;7.55;6.80;;;24.40;94.70;;;;;;5084978;28;20107;-36
2021/09/09 10:10:02;;;;;;;10.50;8.25;;;24.40;94.60;;;;;;5101986;28;20024;-41
2021/09/09 10:12:28;;;;;;;9.13;8.15;;;24.50;94.60;;;;;;5070072;28;20400;-39
2021/09/09 10:14:56;;;;;;;8.82;7.40;;;24.50;94.20;;;;;;5103521;28;20479;-39
2021/09/09 10:17:23;;;;;;;10.23;8.07;;;24.50;94.20;;;;;;5110758;28;20082;-40
2021/09/09 10:19:50;;;;;;;8.38;7.20;;;24.40;94.10;;;;;;5109071;28;20059;-38
2021/09/09 10:22:18;;;;;;;10.50;8.80;;;24.40;94.20;;;;;;5111254;28;20016;-37
2021/09/09 10:24:45;;;;;;;9.25;7.28;;;24.40;94.20;;;;;;5110475;28;20443;-35
2021/09/09 10:27:32;;;;;;;8.57;7.68;;;24.30;94.20;;;;;;5110659;28;20024;-41
2021/09/09 10:30:06;;;;;;;11.63;9.05;;;24.30;94.30;;;;;;5109035;28;20016;-40
2021/09/09 10:32:36;;;;;;;12.63;9.00;;;24.30;94.30;;;;;;5089526;28;20030;-37
2021/09/09 10:35:22;;;;;;;10.10;8.95;;;24.30;94.30;;;;;;5088819;28;20104;-39
2021/09/09 10:37:55;;;;;;;9.30;8.40;;;24.30;94.30;;;;;;5084438;28;20040;-36
2021/09/09 10:40:43;;;;;;;10.43;8.73;;;24.40;94.20;;;;;;5103361;28;20433;-41
2021/09/09 10:43:14;;;;;;;9.13;7.78;;;24.60;94.20;;;;;;5069241;28;20036;-41
2021/09/09 10:45:42;;;;;;;10.00;9.00;;;24.60;94.00;;;;;;5100002;28;20032;-39
2021/09/09 10:48:15;;;;;;;10.13;8.85;;;24.60;94.00;;;;;;5109998;28;20070;-38
2021/09/09 10:50:56;;;;;;;11.55;8.15;;;24.70;93.90;;;;;;5109352;28;20030;-41
2021/09/09 10:53:41;;;;;;;9.55;8.55;;;24.70;93.90;;;;;;5110740;28;20019;-37
2021/09/09 10:56:09;;;;;;;10.20;9.15;;;24.70;94.00;;;;;;5109289;28;20016;-40
2021/09/09 10:58:36;;;;;;;10.32;8.80;;;24.70;94.00;;;;;;5110938;28;20032;-42
2021/09/09 11:01:02;;;;;;;8.75;7.93;;;24.80;94.10;;;;;;5110290;28;20030;-42
2021/09/09 11:03:38;;;;;;;9.38;8.20;;;24.80;94.10;;;;;;5110302;28;20023;-39
2021/09/09 11:06:06;;;;;;;10.98;9.82;;;24.90;94.10;;;;;;5110250;28;20103;-39
2021/09/09 11:08:32;;;;;;;10.73;9.02;;;24.90;94.00;;;;;;5111035;28;20030;-39
2021/09/09 11:10:58;;;;;;;12.85;9.75;;;25.00;93.90;;;;;;5109346;28;20028;-39
2021/09/09 11:13:25;;;;;;;9.63;8.40;;;25.00;93.70;;;;;;5110294;28;20091;-39
2021/09/09 11:15:50;;;;;;;11.00;9.82;;;25.20;93.70;;;;;;5109448;28;20467;-41
2021/09/09 11:18:30;;;;;;;9.30;7.72;;;25.20;93.60;;;;;;5108666;28;20228;-42
2021/09/09 11:21:04;;;;;;;10.27;8.07;;;25.20;93.70;;;;;;5108160;28;20111;-39
2021/09/09 11:23:29;;;;;;;10.50;8.45;;;25.20;93.70;;;;;;5109368;28;20028;-38
2021/09/09 11:25:55;;;;;;;16.02;9.65;;;25.20;93.80;;;;;;5103636;28;20489;-37
2021/09/09 11:28:21;;;;;;;11.23;9.15;;;25.30;93.90;;;;;;5080931;28;20098;-39
2021/09/09 11:31:09;;;;;;;12.35;10.25;;;25.40;94.00;;;;;;5082467;28;20031;-41
2021/09/09 11:33:54;;;;;;;11.52;9.88;;;25.40;94.00;;;;;;5080087;28;20017;-37
2021/09/09 11:36:26;;;;;;;10.80;9.73;;;25.50;93.90;;;;;;5083411;28;20020;-37
2021/09/09 11:38:53;;;;;;;14.82;10.73;;;25.60;93.90;;;;;;5108826;28;20031;-39
2021/09/09 11:41:20;;;;;;;13.90;9.98;;;25.60;94.00;;;;;;5109848;28;20449;-40
2021/09/09 11:43:54;;;;;;;12.90;9.88;;;25.70;94.10;;;;;;5109464;28;20032;-39
2021/09/09 11:46:28;;;;;;;12.45;11.00;;;25.80;93.90;;;;;;5109598;28;20026;-40
2021/09/09 11:48:55;;;;;;;10.73;9.63;;;26.00;93.70;;;;;;5109530;28;20024;-37
2021/09/09 11:51:39;;;;;;;10.52;9.50;;;26.10;93.60;;;;;;5101814;28;20429;-40
2021/09/09 11:54:10;;;;;;;17.65;11.90;;;26.10;93.50;;;;;;5106028;28;20046;-39
2021/09/09 11:56:37;;;;;;;15.07;13.30;;;26.10;93.40;;;;;;5078218;28;20467;-40
2021/09/09 11:59:08;;;;;;;13.77;12.25;;;26.20;93.30;;;;;;5109069;28;20039;-38
2021/09/09 12:01:37;;;;;;;13.60;12.10;;;26.30;93.40;;;;;;5110243;28;20026;-40
2021/09/09 12:04:04;;;;;;;13.45;12.00;;;26.30;93.50;;;;;;5102171;28;20063;-41
2021/09/09 12:06:32;;;;;;;12.60;11.05;;;26.40;93.60;;;;;;5109617;28;20028;-41
2021/09/09 12:08:58;;;;;;;15.73;13.60;;;26.50;93.60;;;;;;5108834;28;20016;-42
2021/09/09 12:11:24;;;;;;;11.80;10.60;;;26.60;93.60;;;;;;5109422;28;20023;-41
2021/09/09 12:13:50;;;;;;;12.85;11.25;;;26.60;93.50;;;;;;5108826;28;20104;-42
2021/09/09 12:16:22;;;;;;;14.73;11.70;;;26.80;93.50;;;;;;5110050;28;20024;-39
2021/09/09 12:19:02;;;;;;;14.48;12.95;;;26.90;93.40;;;;;;5108875;28;20398;-35
2021/09/09 12:21:28;;;;;;;10.90;9.80;;;27.00;93.10;;;;;;5068578;28;20068;-38
2021/09/09 12:23:59;;;;;;;15.85;14.15;;;27.10;92.90;;;;;;5097579;28;20114;-37
2021/09/09 12:26:26;;;;;;;13.60;11.68;;;27.20;92.60;;;;;;5108479;28;20042;-37
2021/09/09 12:28:52;;;;;;;13.30;12.00;;;27.30;92.70;;;;;;5106739;28;20024;-41
2021/09/09 12:31:34;;;;;;;12.40;10.60;;;27.30;92.60;;;;;;5109442;28;20478;-37